sensor_id;sensor_type;location;lat;lon;timestamp;pressure;altitude;pressure_sealevel;temperature;humidity
11648;BME280;5880;52.342;9.662;2023-04-08T00:00:23;101595.88;;;11.89;39.35
11648;BME280;5880;52.342;9.662;2023-04-08T00:02:49;101601.78;;;11.86;39.22
11648;BME280;5880;52.342;9.662;2023-04-08T00:05:15;101598.41;;;11.83;39.11
11648;BME280;5880;52.342;9.662;2023-04-08T00:07:40;101601.16;;;11.83;39.20
11648;BME280;5880;52.342;9.662;2023-04-08T00:10:07;101602.59;;;11.86;39.51
11648;BME280;5880;52.342;9.662;2023-04-08T00:12:33;101601.78;;;11.86;39.40
11648;BME280;5880;52.342;9.662;2023-04-08T00:14:58;101590.41;;;11.82;39.41
11648;BME280;5880;52.342;9.662;2023-04-08T00:17:24;101598.19;;;11.85;39.47
11648;BME280;5880;52.342;9.662;2023-04-08T00:19:50;101589.97;;;11.85;39.22
11648;BME280;5880;52.342;9.662;2023-04-08T00:22:16;101594.38;;;11.86;39.48
11648;BME280;5880;52.342;9.662;2023-04-08T00:24:45;101600.31;;;11.90;39.02
11648;BME280;5880;52.342;9.662;2023-04-08T00:27:11;101596.28;;;11.86;39.10
11648;BME280;5880;52.342;9.662;2023-04-08T00:29:36;101597.34;;;11.91;39.25
11648;BME280;5880;52.342;9.662;2023-04-08T00:32:02;101602.81;;;11.91;39.50
11648;BME280;5880;52.342;9.662;2023-04-08T00:34:28;101602.41;;;11.94;39.15
11648;BME280;5880;52.342;9.662;2023-04-08T00:36:54;101600.06;;;11.98;39.24
11648;BME280;5880;52.342;9.662;2023-04-08T00:39:20;101606.16;;;12.00;39.18
11648;BME280;5880;52.342;9.662;2023-04-08T00:41:46;101611.44;;;12.01;39.21
11648;BME280;5880;52.342;9.662;2023-04-08T00:44:12;101611.19;;;12.03;39.32
11648;BME280;5880;52.342;9.662;2023-04-08T00:46:40;101611.19;;;12.03;39.30
11648;BME280;5880;52.342;9.662;2023-04-08T00:49:06;101607.81;;;12.01;39.16
11648;BME280;5880;52.342;9.662;2023-04-08T00:51:32;101607.63;;;12.02;39.27
11648;BME280;5880;52.342;9.662;2023-04-08T00:54:01;101609.09;;;12.05;39.33
11648;BME280;5880;52.342;9.662;2023-04-08T00:56:30;101601.94;;;12.04;39.49
11648;BME280;5880;52.342;9.662;2023-04-08T00:58:58;101602.13;;;12.02;39.48
11648;BME280;5880;52.342;9.662;2023-04-08T01:01:58;101600.47;;;12.01;39.36
11648;BME280;5880;52.342;9.662;2023-04-08T01:04:51;101594.19;;;11.94;39.52
11648;BME280;5880;52.342;9.662;2023-04-08T01:07:26;101608.50;;;11.96;39.37
11648;BME280;5880;52.342;9.662;2023-04-08T01:10:01;101602.41;;;11.94;39.54
11648;BME280;5880;52.342;9.662;2023-04-08T01:12:29;101596.69;;;11.96;39.59
11648;BME280;5880;52.342;9.662;2023-04-08T01:15:02;101596.06;;;11.94;39.82
11648;BME280;5880;52.342;9.662;2023-04-08T01:17:31;101593.78;;;11.91;39.33
11648;BME280;5880;52.342;9.662;2023-04-08T01:20:00;101598.38;;;11.97;39.49
11648;BME280;5880;52.342;9.662;2023-04-08T01:22:43;101594.56;;;11.98;39.82
11648;BME280;5880;52.342;9.662;2023-04-08T01:25:22;101601.13;;;11.97;39.55
11648;BME280;5880;52.342;9.662;2023-04-08T01:27:48;101604.53;;;11.92;39.59
11648;BME280;5880;52.342;9.662;2023-04-08T01:30:17;101597.13;;;11.86;39.73
11648;BME280;5880;52.342;9.662;2023-04-08T01:32:44;101607.06;;;11.87;39.97
11648;BME280;5880;52.342;9.662;2023-04-08T01:35:12;101598.19;;;11.85;39.95
11648;BME280;5880;52.342;9.662;2023-04-08T01:37:44;101602.59;;;11.86;39.91
11648;BME280;5880;52.342;9.662;2023-04-08T01:40:12;101593.75;;;11.84;40.14
11648;BME280;5880;52.342;9.662;2023-04-08T01:42:39;101613.78;;;11.84;39.87
11648;BME280;5880;52.342;9.662;2023-04-08T01:45:06;101611.03;;;11.84;39.91
11648;BME280;5880;52.342;9.662;2023-04-08T01:47:33;101610.19;;;11.84;40.20
11648;BME280;5880;52.342;9.662;2023-04-08T01:50:00;101609.56;;;11.82;40.31
11648;BME280;5880;52.342;9.662;2023-04-08T01:52:29;101610.00;;;11.79;40.36
11648;BME280;5880;52.342;9.662;2023-04-08T01:54:55;101599.25;;;11.77;40.23
11648;BME280;5880;52.342;9.662;2023-04-08T01:57:27;101601.59;;;11.80;40.22
11648;BME280;5880;52.342;9.662;2023-04-08T01:59:59;101591.25;;;11.82;40.23
11648;BME280;5880;52.342;9.662;2023-04-08T02:02:26;101587.44;;;11.83;40.13
11648;BME280;5880;52.342;9.662;2023-04-08T02:04:53;101581.75;;;11.85;40.17
11648;BME280;5880;52.342;9.662;2023-04-08T02:07:20;101585.75;;;11.89;40.45
11648;BME280;5880;52.342;9.662;2023-04-08T02:09:46;101585.75;;;11.89;40.36
11648;BME280;5880;52.342;9.662;2023-04-08T02:12:11;101578.16;;;11.84;40.17
11648;BME280;5880;52.342;9.662;2023-04-08T02:14:37;101591.03;;;11.91;40.16
11648;BME280;5880;52.342;9.662;2023-04-08T02:17:12;101594.59;;;11.91;40.29
11648;BME280;5880;52.342;9.662;2023-04-08T02:20:00;101604.72;;;11.91;40.12
11648;BME280;5880;52.342;9.662;2023-04-08T02:25:10;101593.38;;;11.87;40.26
11648;BME280;5880;52.342;9.662;2023-04-08T02:27:39;101595.22;;;11.87;40.31
11648;BME280;5880;52.342;9.662;2023-04-08T02:30:07;101597.78;;;11.88;40.55
11648;BME280;5880;52.342;9.662;2023-04-08T02:32:36;101591.66;;;11.86;40.44
11648;BME280;5880;52.342;9.662;2023-04-08T02:35:04;101597.97;;;11.87;40.56
11648;BME280;5880;52.342;9.662;2023-04-08T02:37:31;101601.97;;;11.84;40.59
11648;BME280;5880;52.342;9.662;2023-04-08T02:39:57;101603.25;;;11.88;40.41
11648;BME280;5880;52.342;9.662;2023-04-08T02:42:23;101596.13;;;11.87;40.60
11648;BME280;5880;52.342;9.662;2023-04-08T02:44:49;101598.63;;;11.89;40.66
11648;BME280;5880;52.342;9.662;2023-04-08T02:47:15;101598.41;;;11.90;40.71
11648;BME280;5880;52.342;9.662;2023-04-08T02:49:41;101590.19;;;11.90;40.75
11648;BME280;5880;52.342;9.662;2023-04-08T02:52:07;101599.88;;;11.93;40.54
11648;BME280;5880;52.342;9.662;2023-04-08T02:54:32;101603.44;;;11.93;40.70
11648;BME280;5880;52.342;9.662;2023-04-08T02:56:58;101610.00;;;11.92;40.95
11648;BME280;5880;52.342;9.662;2023-04-08T02:59:24;101613.16;;;11.89;40.82
11648;BME280;5880;52.342;9.662;2023-04-08T03:01:49;101608.91;;;11.87;40.76
11648;BME280;5880;52.342;9.662;2023-04-08T03:04:15;101607.25;;;11.86;40.65
11648;BME280;5880;52.342;9.662;2023-04-08T03:06:41;101610.00;;;11.86;40.98
11648;BME280;5880;52.342;9.662;2023-04-08T03:09:06;101612.72;;;11.86;40.90
11648;BME280;5880;52.342;9.662;2023-04-08T03:11:32;101615.47;;;11.86;40.96
11648;BME280;5880;52.342;9.662;2023-04-08T03:13:58;101622.63;;;11.87;40.71
11648;BME280;5880;52.342;9.662;2023-04-08T03:16:24;101616.75;;;11.83;41.02
11648;BME280;5880;52.342;9.662;2023-04-08T03:18:50;101613.78;;;11.84;40.96
11648;BME280;5880;52.342;9.662;2023-04-08T03:21:16;101621.78;;;11.86;41.08
11648;BME280;5880;52.342;9.662;2023-04-08T03:23:43;101626.25;;;11.87;41.02
11648;BME280;5880;52.342;9.662;2023-04-08T03:26:08;101618.41;;;11.84;41.20
11648;BME280;5880;52.342;9.662;2023-04-08T03:28:34;101625.19;;;11.88;40.89
11648;BME280;5880;52.342;9.662;2023-04-08T03:31:04;101622.44;;;11.88;41.13
11648;BME280;5880;52.342;9.662;2023-04-08T03:33:30;101634.03;;;11.90;41.05
11648;BME280;5880;52.342;9.662;2023-04-08T03:35:55;101624.09;;;11.89;41.31
11648;BME280;5880;52.342;9.662;2023-04-08T03:38:21;101630.22;;;11.91;41.33
11648;BME280;5880;52.342;9.662;2023-04-08T03:40:47;101630.00;;;11.93;41.03
11648;BME280;5880;52.342;9.662;2023-04-08T03:43:13;101626.66;;;11.91;41.06
11648;BME280;5880;52.342;9.662;2023-04-08T03:45:39;101631.69;;;11.94;41.33
11648;BME280;5880;52.342;9.662;2023-04-08T03:48:05;101627.47;;;11.91;41.08
11648;BME280;5880;52.342;9.662;2023-04-08T03:50:31;101631.28;;;11.90;41.24
11648;BME280;5880;52.342;9.662;2023-04-08T03:52:57;101626.66;;;11.91;41.30
11648;BME280;5880;52.342;9.662;2023-04-08T03:55:22;101631.91;;;11.92;41.32
11648;BME280;5880;52.342;9.662;2023-04-08T03:57:48;101639.31;;;11.92;41.22
11648;BME280;5880;52.342;9.662;2023-04-08T04:00:14;101634.88;;;11.91;41.47
11648;BME280;5880;52.342;9.662;2023-04-08T04:02:40;101634.88;;;11.91;41.51
11648;BME280;5880;52.342;9.662;2023-04-08T04:05:06;101640.34;;;11.91;41.56
11648;BME280;5880;52.342;9.662;2023-04-08T04:07:32;101637.59;;;11.91;41.59
11648;BME280;5880;52.342;9.662;2023-04-08T04:09:57;101636.75;;;11.90;41.56
11648;BME280;5880;52.342;9.662;2023-04-08T04:12:23;101634.47;;;11.87;41.70
11648;BME280;5880;52.342;9.662;2023-04-08T04:14:49;101643.91;;;11.91;41.50
11648;BME280;5880;52.342;9.662;2023-04-08T04:17:14;101635.69;;;11.91;41.62
11648;BME280;5880;52.342;9.662;2023-04-08T04:19:40;101642.88;;;11.92;41.71
11648;BME280;5880;52.342;9.662;2023-04-08T04:22:06;101632.97;;;11.91;41.61
11648;BME280;5880;52.342;9.662;2023-04-08T04:24:32;101647.53;;;11.92;41.49
11648;BME280;5880;52.342;9.662;2023-04-08T04:26:58;101642.88;;;11.92;41.70
11648;BME280;5880;52.342;9.662;2023-04-08T04:29:23;101646.44;;;11.93;41.82
11648;BME280;5880;52.342;9.662;2023-04-08T04:31:49;101647.91;;;11.95;41.81
11648;BME280;5880;52.342;9.662;2023-04-08T04:34:15;101650.44;;;11.97;41.68
11648;BME280;5880;52.342;9.662;2023-04-08T04:36:40;101657.59;;;11.98;41.89
11648;BME280;5880;52.342;9.662;2023-04-08T04:39:06;101648.34;;;11.92;42.04
11648;BME280;5880;52.342;9.662;2023-04-08T04:41:32;101654.84;;;11.98;41.83
11648;BME280;5880;52.342;9.662;2023-04-08T04:43:59;101661.16;;;11.98;41.66
11648;BME280;5880;52.342;9.662;2023-04-08T04:46:26;101661.16;;;11.98;41.85
11648;BME280;5880;52.342;9.662;2023-04-08T04:48:52;101669.38;;;11.98;42.06
11648;BME280;5880;52.342;9.662;2023-04-08T04:51:18;101670.03;;;11.94;41.96
11648;BME280;5880;52.342;9.662;2023-04-08T04:53:43;101667.53;;;11.92;41.83
11648;BME280;5880;52.342;9.662;2023-04-08T04:56:09;101679.31;;;11.93;42.10
11648;BME280;5880;52.342;9.662;2023-04-08T04:58:35;101681.44;;;11.91;42.06
11648;BME280;5880;52.342;9.662;2023-04-08T05:01:00;101670.25;;;11.86;42.48
11648;BME280;5880;52.342;9.662;2023-04-08T05:03:26;101682.50;;;11.83;42.55
11648;BME280;5880;52.342;9.662;2023-04-08T05:05:53;101681.22;;;11.79;42.42
11648;BME280;5880;52.342;9.662;2023-04-08T05:08:20;101679.75;;;11.76;42.49
11648;BME280;5880;52.342;9.662;2023-04-08T05:10:46;101679.56;;;11.78;42.72
11648;BME280;5880;52.342;9.662;2023-04-08T05:13:14;101676.81;;;11.78;42.43
11648;BME280;5880;52.342;9.662;2023-04-08T05:15:40;101685.88;;;11.78;42.54
11648;BME280;5880;52.342;9.662;2023-04-08T05:18:05;101688.59;;;11.78;42.90
11648;BME280;5880;52.342;9.662;2023-04-08T05:20:31;101693.25;;;11.78;42.92
11648;BME280;5880;52.342;9.662;2023-04-08T05:22:57;101697.88;;;11.77;42.63
11648;BME280;5880;52.342;9.662;2023-04-08T05:25:22;101686.09;;;11.70;42.93
11648;BME280;5880;52.342;9.662;2023-04-08T05:27:48;101706.53;;;11.74;43.05
11648;BME280;5880;52.342;9.662;2023-04-08T05:30:13;101698.09;;;11.69;42.93
11648;BME280;5880;52.342;9.662;2023-04-08T05:32:40;101700.00;;;11.69;43.33
11648;BME280;5880;52.342;9.662;2023-04-08T05:35:06;101710.09;;;11.68;43.14
11648;BME280;5880;52.342;9.662;2023-04-08T05:37:32;101707.81;;;11.65;42.98
11648;BME280;5880;52.342;9.662;2023-04-08T05:39:58;101706.34;;;11.62;43.08
11648;BME280;5880;52.342;9.662;2023-04-08T05:42:23;101708.44;;;11.60;43.38
11648;BME280;5880;52.342;9.662;2023-04-08T05:44:49;101703.41;;;11.57;43.39
11648;BME280;5880;52.342;9.662;2023-04-08T05:47:14;101703.41;;;11.57;43.63
11648;BME280;5880;52.342;9.662;2023-04-08T05:49:40;101709.31;;;11.54;43.73
11648;BME280;5880;52.342;9.662;2023-04-08T05:52:06;101710.53;;;11.52;43.50
11648;BME280;5880;52.342;9.662;2023-04-08T05:54:32;101714.34;;;11.51;43.78
11648;BME280;5880;52.342;9.662;2023-04-08T05:56:57;101719.81;;;11.51;43.93
11648;BME280;5880;52.342;9.662;2023-04-08T05:59:23;101716.25;;;11.50;43.57
11648;BME280;5880;52.342;9.662;2023-04-08T06:01:49;101714.56;;;11.49;43.86
11648;BME280;5880;52.342;9.662;2023-04-08T06:04:14;101713.09;;;11.47;44.00
11648;BME280;5880;52.342;9.662;2023-04-08T06:06:42;101720.25;;;11.48;43.98
11648;BME280;5880;52.342;9.662;2023-04-08T06:09:08;101725.50;;;11.49;43.88
11648;BME280;5880;52.342;9.662;2023-04-08T06:11:34;101729.50;;;11.47;44.03
11648;BME280;5880;52.342;9.662;2023-04-08T06:14:00;101730.78;;;11.51;44.21
11648;BME280;5880;52.342;9.662;2023-04-08T06:16:26;101737.72;;;11.53;44.26
11648;BME280;5880;52.342;9.662;2023-04-08T06:18:52;101739.44;;;11.54;44.25
11648;BME280;5880;52.342;9.662;2023-04-08T06:21:17;101733.72;;;11.56;44.26
11648;BME280;5880;52.342;9.662;2023-04-08T06:23:43;101742.16;;;11.54;44.41
11648;BME280;5880;52.342;9.662;2023-04-08T06:26:09;101745.94;;;11.53;44.10
11648;BME280;5880;52.342;9.662;2023-04-08T06:28:34;101745.50;;;11.56;44.02
11648;BME280;5880;52.342;9.662;2023-04-08T06:31:00;101756.47;;;11.56;44.08
11648;BME280;5880;52.342;9.662;2023-04-08T06:33:26;101737.72;;;11.53;44.43
11648;BME280;5880;52.342;9.662;2023-04-08T06:36:01;101757.53;;;11.55;44.47
11648;BME280;5880;52.342;9.662;2023-04-08T06:38:28;101753.94;;;11.55;44.24
11648;BME280;5880;52.342;9.662;2023-04-08T06:40:54;101753.94;;;11.55;44.34
11648;BME280;5880;52.342;9.662;2023-04-08T06:43:20;101757.31;;;11.50;44.57
11648;BME280;5880;52.342;9.662;2023-04-08T06:45:46;101760.69;;;11.52;44.47
11648;BME280;5880;52.342;9.662;2023-04-08T06:48:12;101753.13;;;11.54;44.76
11648;BME280;5880;52.342;9.662;2023-04-08T06:50:37;101763.00;;;11.55;44.54
11648;BME280;5880;52.342;9.662;2023-04-08T06:53:03;101758.38;;;11.56;44.75
11648;BME280;5880;52.342;9.662;2023-04-08T06:55:29;101762.56;;;11.58;45.06
11648;BME280;5880;52.342;9.662;2023-04-08T06:57:54;101767.84;;;11.60;44.97
11648;BME280;5880;52.342;9.662;2023-04-08T07:00:20;101766.19;;;11.59;45.10
11648;BME280;5880;52.342;9.662;2023-04-08T07:02:46;101768.47;;;11.62;45.34
11648;BME280;5880;52.342;9.662;2023-04-08T07:05:12;101771.41;;;11.60;45.16
11648;BME280;5880;52.342;9.662;2023-04-08T07:07:37;101771.66;;;11.59;45.13
11648;BME280;5880;52.342;9.662;2023-04-08T07:10:03;101786.19;;;11.59;45.44
11648;BME280;5880;52.342;9.662;2023-04-08T07:12:29;101780.69;;;11.59;44.94
11648;BME280;5880;52.342;9.662;2023-04-08T07:14:55;101783.00;;;11.62;45.28
11648;BME280;5880;52.342;9.662;2023-04-08T07:17:21;101772.50;;;11.66;45.30
11648;BME280;5880;52.342;9.662;2023-04-08T07:19:46;101790.78;;;11.72;45.03
11648;BME280;5880;52.342;9.662;2023-04-08T07:22:12;101785.13;;;11.74;45.17
11648;BME280;5880;52.342;9.662;2023-04-08T07:24:38;101777.72;;;11.74;45.32
11648;BME280;5880;52.342;9.662;2023-04-08T07:27:07;101780.03;;;11.77;45.14
11648;BME280;5880;52.342;9.662;2023-04-08T07:29:33;101776.91;;;11.80;45.27
11648;BME280;5880;52.342;9.662;2023-04-08T07:31:59;101783.84;;;11.83;45.12
11648;BME280;5880;52.342;9.662;2023-04-08T07:34:24;101797.78;;;11.88;45.35
11648;BME280;5880;52.342;9.662;2023-04-08T07:36:50;101787.41;;;11.83;45.20
11648;BME280;5880;52.342;9.662;2023-04-08T07:39:16;101793.97;;;11.89;45.38
11648;BME280;5880;52.342;9.662;2023-04-08T07:41:41;101791.22;;;11.89;45.48
11648;BME280;5880;52.342;9.662;2023-04-08T07:44:07;101797.34;;;11.91;45.19
11648;BME280;5880;52.342;9.662;2023-04-08T07:46:36;101794.41;;;11.93;45.67
11648;BME280;5880;52.342;9.662;2023-04-08T07:49:03;101788.91;;;11.93;45.64
11648;BME280;5880;52.342;9.662;2023-04-08T07:51:28;101796.06;;;12.00;45.64
11648;BME280;5880;52.342;9.662;2023-04-08T07:53:54;101799.00;;;12.06;45.61
11648;BME280;5880;52.342;9.662;2023-04-08T07:56:20;101805.97;;;12.08;45.67
11648;BME280;5880;52.342;9.662;2023-04-08T07:58:46;101796.69;;;12.09;45.75
11648;BME280;5880;52.342;9.662;2023-04-08T08:01:20;101798.59;;;12.15;45.83
11648;BME280;5880;52.342;9.662;2023-04-08T08:03:51;101811.00;;;12.18;45.61
11648;BME280;5880;52.342;9.662;2023-04-08T08:06:16;101813.75;;;12.18;45.54
11648;BME280;5880;52.342;9.662;2023-04-08T08:08:43;101813.94;;;12.23;45.84
11648;BME280;5880;52.342;9.662;2023-04-08T08:11:08;101814.13;;;12.28;45.48
11648;BME280;5880;52.342;9.662;2023-04-08T08:13:34;101811.59;;;12.33;45.49
11648;BME280;5880;52.342;9.662;2023-04-08T08:16:00;101814.75;;;12.37;45.54
11648;BME280;5880;52.342;9.662;2023-04-08T08:18:25;101816.84;;;12.41;45.62
11648;BME280;5880;52.342;9.662;2023-04-08T08:20:51;101817.47;;;12.43;45.57
11648;BME280;5880;52.342;9.662;2023-04-08T08:23:17;101819.78;;;12.46;45.44
11648;BME280;5880;52.342;9.662;2023-04-08T08:25:42;101829.09;;;12.45;45.41
11648;BME280;5880;52.342;9.662;2023-04-08T08:28:08;101829.69;;;12.48;45.73
11648;BME280;5880;52.342;9.662;2023-04-08T08:30:34;101830.94;;;12.52;45.59
11648;BME280;5880;52.342;9.662;2023-04-08T08:33:00;101824.41;;;12.53;45.76
11648;BME280;5880;52.342;9.662;2023-04-08T08:35:25;101834.94;;;12.56;45.65
11648;BME280;5880;52.342;9.662;2023-04-08T08:37:51;101843.81;;;12.58;45.55
11648;BME280;5880;52.342;9.662;2023-04-08T08:40:17;101844.63;;;12.58;45.48
11648;BME280;5880;52.342;9.662;2023-04-08T08:42:52;101850.31;;;12.63;45.77
11648;BME280;5880;52.342;9.662;2023-04-08T08:45:19;101847.56;;;12.63;45.94
11648;BME280;5880;52.342;9.662;2023-04-08T08:47:45;101852.84;;;12.65;45.66
11648;BME280;5880;52.342;9.662;2023-04-08T08:50:10;101854.31;;;12.67;45.76
11648;BME280;5880;52.342;9.662;2023-04-08T08:52:36;101848.00;;;12.67;45.61
11648;BME280;5880;52.342;9.662;2023-04-08T08:55:02;101847.75;;;12.68;45.78
11648;BME280;5880;52.342;9.662;2023-04-08T08:57:27;101851.97;;;12.71;45.96
11648;BME280;5880;52.342;9.662;2023-04-08T08:59:53;101848.63;;;12.69;46.12
11648;BME280;5880;52.342;9.662;2023-04-08T09:02:31;101835.94;;;12.68;45.78
11648;BME280;5880;52.342;9.662;2023-04-08T09:04:59;101855.56;;;12.72;46.06
11648;BME280;5880;52.342;9.662;2023-04-08T09:07:28;101854.28;;;12.74;45.86
11648;BME280;5880;52.342;9.662;2023-04-08T09:09:56;101849.00;;;12.79;46.05
11648;BME280;5880;52.342;9.662;2023-04-08T09:12:23;101855.50;;;12.85;46.15
11648;BME280;5880;52.342;9.662;2023-04-08T09:14:50;101850.63;;;12.87;45.97
11648;BME280;5880;52.342;9.662;2023-04-08T09:17:34;101870.28;;;12.91;45.98
11648;BME280;5880;52.342;9.662;2023-04-08T09:20:11;101871.31;;;12.89;46.05
11648;BME280;5880;52.342;9.662;2023-04-08T09:22:57;101874.06;;;12.89;45.84
11648;BME280;5880;52.342;9.662;2023-04-08T09:25:29;101874.28;;;12.88;45.87
11648;BME280;5880;52.342;9.662;2023-04-08T09:27:56;101871.13;;;12.84;46.04
11648;BME280;5880;52.342;9.662;2023-04-08T09:30:26;101870.47;;;12.89;45.98
11648;BME280;5880;52.342;9.662;2023-04-08T09:32:55;101874.69;;;12.92;45.91
11648;BME280;5880;52.342;9.662;2023-04-08T09:35:22;101871.31;;;12.89;46.10
11648;BME280;5880;52.342;9.662;2023-04-08T09:37:49;101878.72;;;12.89;46.14
11648;BME280;5880;52.342;9.662;2023-04-08T09:40:16;101889.28;;;12.85;46.18
11648;BME280;5880;52.342;9.662;2023-04-08T09:42:46;101897.53;;;12.85;46.30
11648;BME280;5880;52.342;9.662;2023-04-08T09:45:16;101903.66;;;12.81;46.49
11648;BME280;5880;52.342;9.662;2023-04-08T09:48:09;101901.56;;;12.76;46.38
11648;BME280;5880;52.342;9.662;2023-04-08T09:50:46;101898.59;;;12.71;46.60
11648;BME280;5880;52.342;9.662;2023-04-08T09:53:33;101896.94;;;12.70;46.40
11648;BME280;5880;52.342;9.662;2023-04-08T09:56:01;101891.44;;;12.70;46.59
11648;BME280;5880;52.342;9.662;2023-04-08T09:58:59;101889.72;;;12.76;46.47
11648;BME280;5880;52.342;9.662;2023-04-08T10:01:38;101895.63;;;12.79;46.48
11648;BME280;5880;52.342;9.662;2023-04-08T10:04:14;101894.78;;;12.85;46.59
11648;BME280;5880;52.342;9.662;2023-04-08T10:06:42;101893.91;;;12.92;46.60
11648;BME280;5880;52.342;9.662;2023-04-08T10:09:08;101886.72;;;12.97;46.70
11648;BME280;5880;52.342;9.662;2023-04-08T10:11:35;101886.28;;;13.00;46.70
11648;BME280;5880;52.342;9.662;2023-04-08T10:14:01;101891.50;;;13.08;46.66
11648;BME280;5880;52.342;9.662;2023-04-08T10:16:27;101903.53;;;13.14;46.71
11648;BME280;5880;52.342;9.662;2023-04-08T10:18:55;101902.25;;;13.17;46.62
11648;BME280;5880;52.342;9.662;2023-04-08T10:21:33;101890.81;;;13.20;46.64
11648;BME280;5880;52.342;9.662;2023-04-08T10:24:00;101896.31;;;13.20;46.70
11648;BME280;5880;52.342;9.662;2023-04-08T10:26:36;101897.59;;;13.17;46.65
11648;BME280;5880;52.342;9.662;2023-04-08T10:31:44;101888.91;;;13.20;46.68
11648;BME280;5880;52.342;9.662;2023-04-08T10:34:24;101895.66;;;13.24;46.67
11648;BME280;5880;52.342;9.662;2023-04-08T10:36:51;101899.84;;;13.27;46.66
11648;BME280;5880;52.342;9.662;2023-04-08T10:39:18;101902.22;;;13.30;46.75
11648;BME280;5880;52.342;9.662;2023-04-08T10:41:49;101893.72;;;13.32;46.62
11648;BME280;5880;52.342;9.662;2023-04-08T10:44:25;101900.06;;;13.32;46.68
11648;BME280;5880;52.342;9.662;2023-04-08T10:46:52;101897.31;;;13.32;46.56
11648;BME280;5880;52.342;9.662;2023-04-08T10:49:19;101892.25;;;13.36;46.69
11648;BME280;5880;52.342;9.662;2023-04-08T10:51:46;101893.91;;;13.37;46.64
11648;BME280;5880;52.342;9.662;2023-04-08T10:54:17;101895.41;;;13.39;46.70
11648;BME280;5880;52.342;9.662;2023-04-08T10:56:51;101903.41;;;13.41;46.68
11648;BME280;5880;52.342;9.662;2023-04-08T10:59:30;101897.91;;;13.41;46.48
11648;BME280;5880;52.342;9.662;2023-04-08T11:01:57;101899.19;;;13.38;46.67
11648;BME280;5880;52.342;9.662;2023-04-08T11:04:24;101891.81;;;13.32;46.51
11648;BME280;5880;52.342;9.662;2023-04-08T11:06:50;101909.34;;;13.38;46.60
11648;BME280;5880;52.342;9.662;2023-04-08T11:09:16;101909.97;;;13.40;46.71
11648;BME280;5880;52.342;9.662;2023-04-08T11:11:43;101908.69;;;13.42;46.67
11648;BME280;5880;52.342;9.662;2023-04-08T11:14:10;101905.94;;;13.42;46.55
11648;BME280;5880;52.342;9.662;2023-04-08T11:16:37;101906.13;;;13.47;46.64
11648;BME280;5880;52.342;9.662;2023-04-08T11:19:04;101911.81;;;13.46;46.89
11648;BME280;5880;52.342;9.662;2023-04-08T11:21:34;101905.72;;;13.44;46.83
11648;BME280;5880;52.342;9.662;2023-04-08T11:24:00;101905.72;;;13.44;46.70
11648;BME280;5880;52.342;9.662;2023-04-08T11:26:26;101897.44;;;13.50;46.84
11648;BME280;5880;52.342;9.662;2023-04-08T11:28:54;101904.78;;;13.57;46.48
11648;BME280;5880;52.342;9.662;2023-04-08T11:31:21;101901.41;;;13.55;46.56
11648;BME280;5880;52.342;9.662;2023-04-08T11:33:53;101904.34;;;13.60;46.64
11648;BME280;5880;52.342;9.662;2023-04-08T11:36:19;101906.91;;;13.55;46.56
11648;BME280;5880;52.342;9.662;2023-04-08T11:38:46;101909.22;;;13.58;46.62
11648;BME280;5880;52.342;9.662;2023-04-08T11:41:13;101906.69;;;13.56;46.59
11648;BME280;5880;52.342;9.662;2023-04-08T11:43:38;101899.97;;;13.52;46.92
11648;BME280;5880;52.342;9.662;2023-04-08T11:46:14;101905.50;;;13.45;46.80
11648;BME280;5880;52.342;9.662;2023-04-08T11:48:40;101911.81;;;13.46;46.79
11648;BME280;5880;52.342;9.662;2023-04-08T11:51:07;101912.44;;;13.48;46.86
11648;BME280;5880;52.342;9.662;2023-04-08T11:53:34;101917.53;;;13.51;46.89
11648;BME280;5880;52.342;9.662;2023-04-08T11:56:19;101921.72;;;13.54;47.19
11648;BME280;5880;52.342;9.662;2023-04-08T11:58:46;101918.13;;;13.53;46.91
11648;BME280;5880;52.342;9.662;2023-04-08T12:01:13;101930.59;;;13.56;47.05
11648;BME280;5880;52.342;9.662;2023-04-08T12:03:52;101918.97;;;13.54;46.77
11648;BME280;5880;52.342;9.662;2023-04-08T12:06:21;101935.84;;;13.57;46.84
11648;BME280;5880;52.342;9.662;2023-04-08T12:08:46;101928.69;;;13.56;46.69
11648;BME280;5880;52.342;9.662;2023-04-08T12:11:12;101928.88;;;13.55;46.65
11648;BME280;5880;52.342;9.662;2023-04-08T12:13:40;101932.09;;;13.51;46.75
11648;BME280;5880;52.342;9.662;2023-04-08T12:16:07;101931.63;;;13.55;46.72
11648;BME280;5880;52.342;9.662;2023-04-08T12:18:32;101929.97;;;13.54;46.85
11648;BME280;5880;52.342;9.662;2023-04-08T12:20:58;101924.22;;;13.55;46.77
11648;BME280;5880;52.342;9.662;2023-04-08T12:23:23;101927.84;;;13.56;46.95
11648;BME280;5880;52.342;9.662;2023-04-08T12:25:49;101924.47;;;13.54;46.73
11648;BME280;5880;52.342;9.662;2023-04-08T12:28:15;101932.25;;;13.57;46.86
11648;BME280;5880;52.342;9.662;2023-04-08T12:30:41;101935.84;;;13.57;46.89
11648;BME280;5880;52.342;9.662;2023-04-08T12:33:07;101925.69;;;13.58;46.91
11648;BME280;5880;52.342;9.662;2023-04-08T12:35:32;101924.22;;;13.55;46.96
11648;BME280;5880;52.342;9.662;2023-04-08T12:37:58;101930.34;;;13.57;47.07
11648;BME280;5880;52.342;9.662;2023-04-08T12:40:23;101924.47;;;13.54;47.06
11648;BME280;5880;52.342;9.662;2023-04-08T12:42:49;101929.97;;;13.54;47.00
11648;BME280;5880;52.342;9.662;2023-04-08T12:45:15;101937.34;;;13.53;47.08
11648;BME280;5880;52.342;9.662;2023-04-08T12:47:41;101919.63;;;13.49;47.03
11648;BME280;5880;52.342;9.662;2023-04-08T12:50:07;101927.44;;;13.52;47.02
11648;BME280;5880;52.342;9.662;2023-04-08T12:52:34;101919.41;;;13.50;46.96
11648;BME280;5880;52.342;9.662;2023-04-08T12:55:00;101924.50;;;13.47;47.11
11648;BME280;5880;52.342;9.662;2023-04-08T12:57:25;101917.94;;;13.48;46.98
11648;BME280;5880;52.342;9.662;2023-04-08T12:59:52;101924.06;;;13.50;46.90
11648;BME280;5880;52.342;9.662;2023-04-08T13:02:18;101919.19;;;13.52;46.91
11648;BME280;5880;52.342;9.662;2023-04-08T13:04:44;101920.84;;;13.53;46.96
11648;BME280;5880;52.342;9.662;2023-04-08T13:07:09;101922.94;;;13.58;47.14